• Join FlightAware (Why Join?)
  • Login
  • US Flag 
05:20PM EDT


 

Airport Tracker/Info


-or-


 

Live Flight TrackerFlight Track Log ✈ N509QS ✈ 16-May-2013 ✈ LSGG / GVA - KBOS

Flight Track Log - Related Links

Times and Time Zones

All times are in EDT time to prevent confusion due to time zone crossing. See the N509QS flight status page for this flight to view local times or setup timezone preferences in your user account.

Time Position Orientation Groundspeed Altitude Reporting Facility
EDT Latitude Longitude Course Direction KTS MPH feet Rate Location/Type
01:11PM 50.9218 -16.4310 296° West  Level Estimated
01:12PM 50.9407 -16.6278 279° West  Level Estimated
01:13PM 50.9592 -16.8248 279° West  Level Estimated
01:14PM 50.9774 -17.0220 278° West  Level Estimated
01:15PM 50.9952 -17.2193 278° West  Level Estimated
01:16PM 51.0127 -17.4167 278° West  Level Estimated
01:17PM 51.0299 -17.6143 278° West  Level Estimated
01:18PM 51.0468 -17.8120 278° West  Level Estimated
01:19PM 51.0633 -18.0099 278° West  Level Estimated
01:20PM 51.0795 -18.2079 277° West  Level Estimated
01:21PM 51.0953 -18.4061 277° West  Level Estimated
01:22PM 51.1109 -18.6044 277° West  Level Estimated
01:23PM 51.1260 -18.8028 277° West  Level Estimated
01:24PM 51.1409 -19.0014 277° West  Level Estimated
01:25PM 51.1554 -19.2001 277° West  Level Estimated
01:26PM 51.1696 -19.3988 277° West  Level Estimated
01:27PM 51.1834 -19.5978 276° West  Level Estimated
01:28PM 51.1969 -19.7968 276° West  Level Estimated
01:28PM 52.0000 -20.0000 274° West 451 519 43,000  Level ETMS Enhanced Traffic Management System
01:29PM 51.2100 -19.9960 276° West  Level Estimated
01:30PM 51.2229 -20.1952 276° West  Level Estimated
01:31PM 51.2353 -20.3946 276° West  Level Estimated
01:32PM 51.2475 -20.5941 276° West  Level Estimated
01:33PM 51.2593 -20.7937 275° West  Level Estimated
01:34PM 52.0688 -22.0378 272° West 451 519 43,000  Level FlightAware Transoceanic
01:35PM 52.0737 -22.2419 272° West 451 519 43,000  Level FlightAware Transoceanic
01:36PM 52.0783 -22.4460 272° West 451 519 43,000  Level FlightAware Transoceanic
01:37PM 52.0826 -22.6502 272° West 451 519 43,000  Level FlightAware Transoceanic
01:38PM 52.0864 -22.8544 272° West 451 519 43,000  Level FlightAware Transoceanic
01:39PM 52.0900 -23.0586 272° West 451 519 43,000  Level FlightAware Transoceanic
01:40PM 52.0932 -23.2629 271° West 451 519 43,000  Level FlightAware Transoceanic
01:41PM 52.0960 -23.4672 271° West 451 519 43,000  Level FlightAware Transoceanic
01:42PM 52.0985 -23.6715 271° West 451 519 43,000  Level FlightAware Transoceanic
01:43PM 52.1006 -23.8759 271° West 451 519 43,000  Level FlightAware Transoceanic
01:44PM 52.1023 -24.0802 271° West 451 519 43,000  Level FlightAware Transoceanic
01:45PM 52.1038 -24.2846 271° West 451 519 43,000  Level FlightAware Transoceanic
01:46PM 52.1048 -24.4890 270° West 451 519 43,000  Level FlightAware Transoceanic
01:47PM 52.1055 -24.6934 270° West 451 519 43,000  Level FlightAware Transoceanic
01:48PM 52.1059 -24.8978 270° West 451 519 43,000  Level FlightAware Transoceanic
01:49PM 52.1059 -25.1022 270° West 451 519 43,000  Level FlightAware Transoceanic
01:50PM 52.1055 -25.3066 270° West 451 519 43,000  Level FlightAware Transoceanic
01:51PM 52.1048 -25.5110 270° West 451 519 43,000  Level FlightAware Transoceanic
01:52PM 52.1038 -25.7154 269° West 451 519 43,000  Level FlightAware Transoceanic
01:53PM 52.1023 -25.9198 269° West 451 519 43,000  Level FlightAware Transoceanic
01:54PM 52.1006 -26.1241 269° West 451 519 43,000  Level FlightAware Transoceanic
01:55PM 52.0985 -26.3285 269° West 451 519 43,000  Level FlightAware Transoceanic
01:56PM 52.0960 -26.5328 269° West 451 519 43,000  Level FlightAware Transoceanic
01:57PM 52.0932 -26.7371 269° West 451 519 43,000  Level FlightAware Transoceanic
01:58PM 52.0900 -26.9414 268° West 451 519 43,000  Level FlightAware Transoceanic
01:59PM 52.0864 -27.1456 268° West 451 519 43,000  Level FlightAware Transoceanic
02:00PM 52.0826 -27.3498 268° West 451 519 43,000  Level FlightAware Transoceanic
02:01PM 52.0783 -27.5540 268° West 451 519 43,000  Level FlightAware Transoceanic
02:02PM 52.0737 -27.7581 268° West 451 519 43,000  Level FlightAware Transoceanic
02:03PM 52.0688 -27.9622 268° West 451 519 43,000  Level FlightAware Transoceanic
02:04PM 52.0635 -28.1663 268° West 451 519 43,000  Level FlightAware Transoceanic
02:05PM 52.0578 -28.3703 267° West 451 519 43,000  Level FlightAware Transoceanic
02:06PM 52.0518 -28.5742 267° West 451 519 43,000  Level FlightAware Transoceanic
02:07PM 52.0455 -28.7781 267° West 451 519 43,000  Level FlightAware Transoceanic
02:08PM 52.0388 -28.9819 267° West 451 519 43,000  Level FlightAware Transoceanic
02:09PM 52.0317 -29.1856 267° West 451 519 43,000  Level FlightAware Transoceanic
02:10PM 52.0243 -29.3894 267° West 451 519 43,000  Level FlightAware Transoceanic
02:11PM 52.0166 -29.5930 266° West 451 519 43,000  Level FlightAware Transoceanic
02:12PM 52.0085 -29.7965 266° West 451 519 43,000  Level FlightAware Transoceanic
02:13PM 52.0000 -29.9999 266° West  Level FlightAware Approximate
02:14PM 51.9998 -30.2037 270° West  Level FlightAware Approximate
02:15PM 51.9885 -30.2027 265° West  Level FlightAware Approximate
02:16PM 51.9766 -30.4055 265° West  Level FlightAware Approximate
02:16PM 52.0000 -30.0000 265° West 453 521 43,000  Level ETMS Enhanced Traffic Management System
02:17PM 51.9644 -30.6082 264° West  Level FlightAware Approximate
02:18PM 51.9519 -30.8108 264° West  Level FlightAware Approximate
02:19PM 51.9390 -31.0133 264° West  Level FlightAware Approximate
02:20PM 51.9257 -31.2156 264° West  Level FlightAware Approximate
02:21PM 51.9121 -31.4179 264° West  Level FlightAware Approximate
02:22PM 51.8833 -31.8297 263° West 453 521 43,000  Level FlightAware Transoceanic
02:23PM 51.8686 -32.0324 263° West 453 521 43,000  Level FlightAware Transoceanic
02:24PM 51.8535 -32.2350 263° West 453 521 43,000  Level FlightAware Transoceanic
02:25PM 51.8381 -32.4374 263° West 453 521 43,000  Level FlightAware Transoceanic
02:26PM 51.8224 -32.6397 263° West 453 521 43,000  Level FlightAware Transoceanic
02:27PM 51.8063 -32.8418 263° West 453 521 43,000  Level FlightAware Transoceanic
02:28PM 51.7898 -33.0438 262° West 453 521 43,000  Level FlightAware Transoceanic
02:29PM 51.7730 -33.2456 262° West 453 521 43,000  Level FlightAware Transoceanic
02:30PM 51.7559 -33.4473 262° West 453 521 43,000  Level FlightAware Transoceanic
02:31PM 51.7384 -33.6488 262° West 453 521 43,000  Level FlightAware Transoceanic
02:32PM 51.7206 -33.8502 262° West 453 521 43,000  Level FlightAware Transoceanic
02:33PM 51.7024 -34.0514 262° West 453 521 43,000  Level FlightAware Transoceanic
02:34PM 51.6839 -34.2525 261° West 453 521 43,000  Level FlightAware Transoceanic
02:35PM 51.6650 -34.4534 261° West 453 521 43,000  Level FlightAware Transoceanic
02:36PM 51.6458 -34.6541 261° West 453 521 43,000  Level FlightAware Transoceanic
02:37PM 51.6263 -34.8546 261° West 453 521 43,000  Level FlightAware Transoceanic
02:38PM 51.6064 -35.0550 261° West 453 521 43,000  Level FlightAware Transoceanic
02:39PM 51.5861 -35.2552 261° West 453 521 43,000  Level FlightAware Transoceanic
02:40PM 51.5656 -35.4552 261° West 453 521 43,000  Level FlightAware Transoceanic
02:41PM 51.5447 -35.6550 260° West 453 521 43,000  Level FlightAware Transoceanic
02:42PM 51.5234 -35.8547 260° West 453 521 43,000  Level FlightAware Transoceanic
02:43PM 51.5018 -36.0541 260° West 453 521 43,000  Level FlightAware Transoceanic
02:44PM 51.4799 -36.2534 260° West 453 521 43,000  Level FlightAware Transoceanic
02:45PM 51.4576 -36.4525 260° West 453 521 43,000  Level FlightAware Transoceanic
02:46PM 51.4351 -36.6514 260° West 453 521 43,000  Level FlightAware Transoceanic
02:47PM 51.4121 -36.8501 259° West 453 521 43,000  Level FlightAware Transoceanic
02:48PM 51.3889 -37.0485 259° West 453 521 43,000  Level FlightAware Transoceanic
02:49PM 51.3652 -37.2468 259° West 453 521 43,000  Level FlightAware Transoceanic
02:50PM 51.3413 -37.4449 259° West 453 521 43,000  Level FlightAware Transoceanic
02:51PM 51.3170 -37.6427 259° West 453 521 43,000  Level FlightAware Transoceanic
02:52PM 51.2924 -37.8404 259° West 453 521 43,000  Level FlightAware Transoceanic
02:53PM 51.2675 -38.0378 259° West 453 521 43,000  Level FlightAware Transoceanic
02:54PM 51.2422 -38.2351 258° West 453 521 43,000  Level FlightAware Transoceanic
02:55PM 51.2166 -38.4321 258° West 453 521 43,000  Level FlightAware Transoceanic
02:56PM 51.1907 -38.6289 258° West 453 521 43,000  Level FlightAware Transoceanic
02:57PM 51.1644 -38.8254 258° West 453 521 43,000  Level FlightAware Transoceanic
02:58PM 51.1379 -39.0218 258° West 453 521 43,000  Level FlightAware Transoceanic
02:59PM 51.1109 -39.2179 258° West 453 521 43,000  Level FlightAware Transoceanic
03:00PM 51.0837 -39.4138 257° West 453 521 43,000  Level FlightAware Transoceanic
03:01PM 51.0561 -39.6094 257° West 453 521 43,000  Level FlightAware Transoceanic
03:02PM 51.0282 -39.8048 257° West 453 521 43,000 540 Level FlightAware Transoceanic
03:03PM 51.0001 -39.9992 257° West  Level FlightAware Approximate
03:04PM 50.9709 -40.1930 257° West  Level FlightAware Approximate
03:04PM 51.0000 -40.0000 265° West 463 533 45,000  Level ETMS Enhanced Traffic Management System
03:05PM 50.9886 -40.1969 265° West  Level FlightAware Approximate
03:06PM 50.9767 -40.3953 265° West  Level FlightAware Approximate
03:07PM 50.9645 -40.5936 264° West  Level FlightAware Approximate
03:08PM 50.9520 -40.7918 264° West  Level FlightAware Approximate
03:09PM 50.9391 -40.9899 264° West  Level FlightAware Approximate
03:10PM 50.8981 -41.6259 264° West 463 533 45,000  Level FlightAware Transoceanic
03:11PM 50.8838 -41.8287 264° West 463 533 45,000  Level FlightAware Transoceanic
03:12PM 50.8691 -42.0312 263° West 463 533 45,000  Level FlightAware Transoceanic
03:13PM 50.8541 -42.2337 263° West 463 533 45,000  Level FlightAware Transoceanic
03:14PM 50.8387 -42.4361 263° West 463 533 45,000  Level FlightAware Transoceanic
03:15PM 50.8230 -42.6382 263° West 463 533 45,000  Level FlightAware Transoceanic
03:16PM 50.8069 -42.8403 263° West 463 533 45,000  Level FlightAware Transoceanic
03:17PM 50.7905 -43.0422 263° West 463 533 45,000  Level FlightAware Transoceanic
03:18PM 50.7737 -43.2440 262° West 463 533 45,000  Level FlightAware Transoceanic
03:19PM 50.7566 -43.4456 262° West 463 533 45,000  Level FlightAware Transoceanic
03:20PM 50.7391 -43.6471 262° West 463 533 45,000  Level FlightAware Transoceanic
03:21PM 50.7213 -43.8484 262° West 463 533 45,000  Level FlightAware Transoceanic
03:22PM 50.7031 -44.0496 262° West 463 533 45,000  Level FlightAware Transoceanic
03:23PM 50.6846 -44.2506 262° West 463 533 45,000  Level FlightAware Transoceanic
03:24PM 50.6658 -44.4515 261° West 463 533 45,000  Level FlightAware Transoceanic
03:25PM 50.6466 -44.6522 261° West 463 533 45,000  Level FlightAware Transoceanic
03:26PM 50.6270 -44.8527 261° West 463 533 45,000  Level FlightAware Transoceanic
03:27PM 50.6072 -45.0531 261° West 463 533 45,000  Level FlightAware Transoceanic
03:28PM 50.5869 -45.2533 261° West 463 533 45,000  Level FlightAware Transoceanic
03:29PM 50.5664 -45.4533 261° West 463 533 45,000  Level FlightAware Transoceanic
03:30PM 50.5454 -45.6531 261° West 463 533 45,000  Level FlightAware Transoceanic
03:31PM 50.5242 -45.8528 260° West 463 533 45,000  Level FlightAware Transoceanic
03:32PM 50.5026 -46.0523 260° West 463 533 45,000  Level FlightAware Transoceanic
03:33PM 50.4807 -46.2515 260° West 463 533 45,000  Level FlightAware Transoceanic
03:34PM 50.4584 -46.4507 260° West 463 533 45,000  Level FlightAware Transoceanic
03:35PM 50.4358 -46.6496 260° West 463 533 45,000  Level FlightAware Transoceanic
03:36PM 50.4128 -46.8483 260° West 463 533 45,000  Level FlightAware Transoceanic
03:37PM 50.3895 -47.0468 259° West 463 533 45,000  Level FlightAware Transoceanic
03:38PM 50.3659 -47.2452 259° West 463 533 45,000  Level FlightAware Transoceanic
03:39PM 50.3419 -47.4433 259° West 463 533 45,000  Level FlightAware Transoceanic
03:40PM 50.3176 -47.6413 259° West 463 533 45,000  Level FlightAware Transoceanic
03:41PM 50.2930 -47.8390 259° West 463 533 45,000  Level FlightAware Transoceanic
03:42PM 50.2680 -48.0365 259° West 463 533 45,000  Level FlightAware Transoceanic
03:43PM 50.2427 -48.2339 259° West 463 533 45,000  Level FlightAware Transoceanic
03:44PM 50.2171 -48.4310 258° West 463 533 45,000  Level FlightAware Transoceanic
03:45PM 50.1911 -48.6279 258° West 463 533 45,000  Level FlightAware Transoceanic
03:46PM 50.1648 -48.8246 258° West 463 533 45,000  Level FlightAware Transoceanic
03:47PM 50.1381 -49.0210 258° West 463 533 45,000  Level FlightAware Transoceanic
03:48PM 50.1112 -49.2173 258° West 463 533 45,000  Level FlightAware Transoceanic
03:49PM 50.0839 -49.4133 258° West 463 533 45,000  Level FlightAware Transoceanic
03:50PM 50.0563 -49.6091 258° West 463 533 45,000  Level FlightAware Transoceanic
03:51PM 50.0283 -49.8047 257° West 463 533 45,000  Level FlightAware Transoceanic
03:52PM 49.9983 -49.9943 256° West  Level FlightAware Approximate
03:53PM 50.0000 -49.9897 270° West  Level FlightAware Approximate
03:54PM 49.9610 -50.1748 251° West  Level FlightAware Approximate
03:54PM 50.0000 -50.0000 251° West 451 519 45,000  Level ETMS Enhanced Traffic Management System
03:55PM 49.9196 -50.3591 251° West  Level FlightAware Approximate
03:55PM 49.8667 -50.4500 250° West 470 541 45,000  Level Moncton Center
03:56PM 49.8778 -50.5430 251° West  Level FlightAware Approximate
03:56PM 49.8167 -50.6500 249° West 460 529 45,300  Level Moncton Center
03:57PM 49.8358 -50.7266 251° West  Level FlightAware Approximate
03:57PM 49.7833 -50.8500 256° West 460 529 45,500  Level Moncton Center
03:58PM 49.7935 -50.9099 250° West  Level FlightAware Approximate
03:58PM 49.7500 -51.0167 253° West 470 541 45,600  Level Moncton Center
03:59PM 49.7509 -51.0929 250° West  Level FlightAware Approximate
03:59PM 49.7000 -51.1833 245° Southwest 460 529 45,800  Level Gander Center
04:00PM 49.7486 -51.1026 251° West  Level FlightAware Approximate
04:00PM 49.6500 -51.3667 247° West 460 529 45,900  Level Gander Center
04:01PM 49.7063 -51.2855 250° West  Level FlightAware Approximate
04:01PM 49.6500 -51.4500 270° West 470 541 46,000  Level Gander Center
04:01PM 49.6167 -51.5333 238° Southwest 470 541 46,100 120 Climbing Gander Center
04:02PM 49.5667 -51.7500 250° West 460 529 46,200 60 Climbing Gander Center
04:03PM 49.5667 -51.8000 270° West 470 541 46,200 60 Level Gander Center
04:03PM 49.5333 -51.9167 246° West 460 529 46,300 120 Climbing Gander Center
04:04PM 49.4833 -52.1000 247° West 460 529 46,400 60 Climbing Gander Center
04:05PM 49.4667 -52.1833 253° West 460 529 46,400 60 Level Gander Center
04:06PM 49.4167 -52.3833 249° West 460 529 46,500 120 Climbing Gander Center
04:06PM 49.4000 -52.4667 253° West 460 529 46,600 120 Climbing Gander Center
04:07PM 49.3667 -52.6667 256° West 460 529 46,700  Climbing Gander Center
04:08PM 49.3000 -52.8333 239° Southwest 460 529 46,700  Level Gander Center
04:09PM 49.2667 -53.0167 254° West 460 529 46,800 60 Climbing Gander Center
04:10PM 49.2167 -53.2167 249° West 460 529 46,900 60 Climbing Gander Center
04:11PM 49.1833 -53.4000 255° West 460 529 47,000 60 Climbing Gander Center
04:12PM 49.1500 -53.4833 239° Southwest 460 529 47,000  Level Gander Center
04:13PM 49.1167 -53.6333 251° West 460 529 47,000  Level Gander Center
04:14PM 49.0500 -53.8333 243° Southwest 460 529 47,000  Level Gander Center
04:15PM 49.0167 -54.0167 255° West 460 529 47,000  Level Gander Center
04:16PM 48.9333 -54.3000 246° West 470 541 47,000  Level Gander Center
04:17PM 48.9167 -54.3833 253° West 460 529 47,000  Level Gander Center
04:18PM 48.8667 -54.5500 246° West 460 529 47,000  Level Gander Center
04:19PM 48.8000 -54.8500 251° West 470 541 47,000  Level Gander Center
04:20PM 48.7833 -54.9167 249° West 470 541 47,000  Level Gander Center
04:21PM 48.7333 -55.1000 248° West 470 541 47,000  Level Gander Center
04:22PM 48.6833 -55.3000 249° West 470 541 47,000  Level Gander Center
04:23PM 48.6500 -55.4667 253° West 470 541 47,000  Level Gander Center
04:24PM 48.6000 -55.6667 249° West 460 529 47,000  Level Gander Center
04:24PM 48.5667 -55.8167 251° West 460 529 47,000  Level Moncton Center
04:25PM 48.5167 -55.9667 243° Southwest 460 529 47,000  Level Moncton Center
04:26PM 48.4667 -56.1833 251° West 460 529 47,000  Level Moncton Center
04:27PM 48.4167 -56.3333 243° Southwest 470 541 47,000  Level Moncton Center
04:28PM 48.3667 -56.5333 249° West 470 541 47,000  Level Moncton Center
04:29PM 48.3333 -56.7167 255° West 470 541 47,000  Level Moncton Center
04:31PM 48.2333 -57.0333 245° Southwest 470 541 47,000  Level Gander Center
04:32PM 48.2167 -57.1167 253° West 470 541 47,000  Level Gander Center
04:32PM 48.1833 -57.2667 252° West 470 541 47,000  Level Moncton Center
04:33PM 48.1167 -57.4167 236° Southwest 470 541 47,000  Level Moncton Center
04:34PM 48.0833 -57.6167 256° West 470 541 47,000  Level Moncton Center
04:35PM 48.0333 -57.7833 246° West 470 541 47,000  Level Moncton Center
04:36PM 47.9667 -57.9667 242° Southwest 470 541 47,000  Level Moncton Center
04:37PM 47.9333 -58.1500 255° West 470 541 47,000  Level Moncton Center
04:38PM 47.8667 -58.3333 242° Southwest 460 529 47,000  Level Moncton Center
04:39PM 47.8333 -58.5000 253° West 460 529 47,000  Level Moncton Center
04:40PM 47.7667 -58.6833 242° Southwest 460 529 47,000  Level Moncton Center
04:42PM 47.7167 -58.9000 251° West 460 529 47,000  Level Gander Center
04:42PM 47.6667 -59.0167 238° Southwest 460 529 47,000  Level Moncton Center
04:43PM 47.6167 -59.2333 251° West 460 529 47,000  Level Moncton Center
04:44PM 47.5667 -59.3833 244° Southwest 470 541 47,000  Level Moncton Center
04:45PM 47.5167 -59.5833 250° West 460 529 47,000  Level Moncton Center
04:46PM 47.4667 -59.7333 244° Southwest 460 529 47,000  Level Moncton Center
04:47PM 47.4167 -59.9167 248° West 460 529 47,000  Level Moncton Center
04:48PM 47.3667 -60.1000 248° West 450 518 47,000  Level Moncton Center
04:50PM 47.2833 -60.3000 238° Southwest 460 529 47,000  Level Gander Center
04:50PM 47.2667 -60.4167 258° West 450 518 47,000  Level Moncton Center
04:51PM 47.2000 -60.6000 242° Southwest 470 541 47,000  Level Moncton Center
04:52PM 47.1333 -60.7833 242° Southwest 450 518 47,000  Level Moncton Center
04:53PM 47.1000 -60.9333 252° West 470 541 47,000  Level Moncton Center
04:55PM 47.0333 -61.1333 244° Southwest 460 529 47,000  Level Gander Center
04:55PM 46.9833 -61.2833 244° Southwest 460 529 47,000  Level Moncton Center
04:56PM 46.9500 -61.4500 254° West 460 529 47,000  Level Moncton Center
04:57PM 46.8833 -61.6333 242° Southwest 460 529 47,000  Level Moncton Center
04:58PM 46.8333 -61.7833 244° Southwest 460 529 47,000  Level Moncton Center
04:59PM 46.7667 -61.9500 240° Southwest 460 529 47,000  Level Moncton Center
05:00PM 46.7000 -62.1333 242° Southwest 460 529 47,000  Level Moncton Center
05:01PM 46.6667 -62.3000 254° West 460 529 47,000  Level Moncton Center
05:02PM 46.6167 -62.4667 246° West 470 541 47,000  Level Moncton Center
05:03PM 46.5500 -62.6500 242° Southwest 470 541 47,000  Level Moncton Center
05:04PM 46.4833 -62.8167 240° Southwest 470 541 47,000  Level Moncton Center
05:05PM 46.4167 -62.9833 240° Southwest 470 541 47,000  Level Moncton Center
05:06PM 46.3667 -63.1667 248° West 470 541 47,000  Level Moncton Center
05:07PM 46.3000 -63.3333 240° Southwest 480 552 47,000  Level Moncton Center
05:08PM 46.2500 -63.5000 247° West 480 552 47,000  Level Moncton Center
05:09PM 46.1833 -63.6667 240° Southwest 480 552 47,000  Level Moncton Center
05:10PM 46.1333 -63.8500 249° West 480 552 47,000  Level Moncton Center
05:11PM 46.0833 -64.0167 247° West 480 552 47,000  Level Moncton Center
05:12PM 46.0167 -64.1833 240° Southwest 480 552 47,000  Level Moncton Center
05:13PM 45.9500 -64.3500 240° Southwest 480 552 47,000  Level Moncton Center
05:14PM 45.8833 -64.5333 242° Southwest 480 552 47,000  Level Moncton Center
05:15PM 45.8333 -64.7167 249° West 480 552 47,000  Level Moncton Center
05:16PM 45.7500 -64.8833 234° Southwest 480 552 47,000  Level Moncton Center
05:17PM 45.6833 -65.0500 240° Southwest 480 552 47,000  Level Moncton Center
05:18PM 45.6333 -65.2167 247° West 480 552 47,000  Level Moncton Center
05:19PM 45.5667 -65.3833 240° Southwest 480 552 47,000  Level Moncton Center
05:20PM 45.5000 -65.5500 240° Southwest 480 552 47,000  Level Moncton Center
05:21PM 45.4500 -65.7333 249° West 480 552 47,000  Level Moncton Center
05:22PM 45.3833 -65.8667 235° Southwest 480 552 47,000  Level Moncton Center
05:23PM 45.3167 -66.0667 245° Southwest 480 552 47,000  Level Moncton Center
05:24PM 45.2667 -66.2000 242° Southwest 470 541 47,000  Level Moncton Center
05:25PM 45.1833 -66.3833 237° Southwest 470 541 47,000  Level Moncton Center
05:26PM 45.1333 -66.5333 245° Southwest 470 541 47,000  Level Moncton Center
05:27PM 45.0667 -66.7000 241° Southwest 470 541 47,000  Level Moncton Center
05:28PM 45.0000 -66.8500 238° Southwest 460 529 47,000  Level Moncton Center
05:29PM 44.9500 -67.0167 247° West 460 529 47,000  Level Moncton Center
05:30PM 44.8667 -67.1833 235° Southwest 460 529 47,000 -660 Level Moncton Center
05:31PM 44.8167 -67.3167 242° Southwest 450 518 45,700 -1,260 Descending Moncton Center
05:32PM 44.7758 -67.4328 244° Southwest 450 518 44,700 -1,260 Descending Boston Center
05:33PM 44.7069 -67.5789 236° Southwest 445 512 43,400 -1,380 Descending Boston Center
05:34PM 44.6400 -67.7244 237° Southwest 456 525 42,000 -1,380 Descending Boston Center
05:35PM 44.5747 -67.8639 237° Southwest 456 525 40,700 -1,320 Descending Boston Center
05:36PM 44.5050 -67.9975 234° Southwest 446 513 39,400 -1,320 Descending Boston Center
05:37PM 44.4175 -68.1086 222° Southwest 434 499 38,100 -1,320 Descending Boston Center
05:38PM 44.3297 -68.2167 221° Southwest 426 490 36,800 -1,320 Descending Boston Center
05:39PM 44.2456 -68.3125 219° Southwest 420 483 35,500 -1,260 Descending Boston Center
05:40PM 44.1636 -68.4139 222° Southwest 408 470 34,300 -1,080 Descending Boston Center
05:41PM 44.0836 -68.5089 220° Southwest 403 464 33,400 -1,200 Descending Boston Center
05:42PM 43.9997 -68.6156 222° Southwest 381 438 32,000 -1,380 Descending Boston Center
05:43PM 43.9172 -68.7100 220° Southwest 381 438 30,700 -1,260 Descending Boston Center
05:44PM 43.8369 -68.8044 220° Southwest 386 444 29,500 -1,200 Descending Boston Center
05:45PM 43.7586 -68.8983 221° Southwest 386 444 28,300 -1,140 Descending Boston Center
05:46PM 43.6842 -68.9831 219° Southwest 386 444 27,300 -1,140 Descending Boston Center
05:47PM 43.6056 -69.0794 222° Southwest 386 444 26,100 -1,200 Descending Boston Center
05:48PM 43.5292 -69.1694 221° Southwest 386 444 24,900 -1,200 Descending Boston Center
05:49PM 43.4503 -69.2567 219° Southwest 386 444 23,700 -1,200 Descending Boston Center
05:50PM 43.3714 -69.3494 221° Southwest 380 437 22,600 -1,200 Descending Boston Center
05:51PM 43.2947 -69.4417 221° Southwest 375 432 21,400 -1,200 Descending Boston Center
05:52PM 43.2178 -69.5311 220° Southwest 375 432 20,200 -1,200 Descending Boston Center
05:53PM 43.1389 -69.6231 220° Southwest 375 432 19,000 -1,320 Descending Boston Center
05:54PM 43.0575 -69.7119 219° Southwest 375 432 17,600 -1,200 Descending Boston Center
05:55PM 42.9806 -69.8033 221° Southwest 375 432 16,700 -1,200 Descending Boston Center
05:56PM 42.8953 -69.9006 220° Southwest 375 432 15,300 -1,260 Descending Boston Center
05:57PM 42.8219 -69.9831 220° Southwest 369 425 14,200 -1,140 Descending Boston Center
05:58PM 42.7486 -70.0678 220° Southwest 363 418 13,100 -1,080 Descending Boston Center
05:59PM 42.6794 -70.1467 220° Southwest 350 403 12,100 -960 Descending Boston Center
06:00PM 42.6203 -70.2139 220° Southwest 313 360 11,200 -600 Descending Boston Center
06:01PM 42.5886 -70.2997 243° Southwest 260 299 10,900 -600 Descending Boston Center
06:02PM 42.5842 -70.3928 266° West 244 281 10,100 -1,020 Descending Boston Center
06:03PM 42.5875 -70.4661 274° West 244 281 8,900 -1,500 Descending Boston Center
06:04PM 42.5342 -70.5242 219° Southwest 195 224 7,100 -1,860 Descending Boston Center
06:05PM 42.4611 -70.5150 175° South 201 231 5,200 -1,620 Descending Boston Center
06:06PM 42.4311 -70.5892 241° Southwest 215 247 3,900 -660 Descending Boston Center
06:07PM 42.4197 -70.6625 258° West 205 236 3,900 -60 Level Boston Center
06:08PM 42.4103 -70.7136 256° West 179 206 3,800 -480 Descending Boston Center
06:09PM 42.4006 -70.7700 257° West 168 193 3,000 -840 Descending Boston Center
06:10PM 42.3911 -70.8294 258° West 162 186 2,200 -780 Descending Boston Center
06:11PM 42.3814 -70.8831 256° West 162 186 1,500 -720 Descending Boston Center
06:12PM 42.3833 -70.9000 279° West 152 175 1,200 -660 Descending KA90
06:13PM 42.3667 -70.9500 246° West 124 143 600 3,780 Descending KA90
06:14PM 42.3542 -71.0269 258° West 130 150 11,000 6,540 Climbing Boston Center
06:16PM 42.3630 -71.0064 200° South  Level Estimated
06:23PM 42.3630 -71.0064 North  Level Estimated
06:24PM 42.3630 -71.0064 North  Level Estimated
06:25PM 42.3630 -71.0064 North  Level Estimated
06:26PM 42.3630 -71.0064 North  Level Estimated
06:27PM 42.3630 -71.0064 North  Level Estimated
06:28PM 42.3630 -71.0064 North  Level Estimated
06:29PM 42.3630 -71.0064 North  Level Estimated